Terminal Aerodrome Forecast
Issued by NWS Louisville, KY

Home | Current Version | Previous Version | Text Only | Print | Product List | Glossary On
Versions: 1 2 3 4 5 6 7 8 9 10 11 12 13 14 15
909
FTUS43 KLMK 220520
TAFBWG
TAF
KBWG 220520Z 2206/2306 17005KT P6SM SCT250
     FM221200 17007KT P6SM VCTS SCT035CB OVC090
     FM221400 17012KT 4SM SHRA VCTS BKN018CB OVC035
      TEMPO 2215/2219 3SM BR OVC012
     FM222300 16009KT P6SM VCTS OVC025CB
     FM230100 18008KT P6SM SCT020 OVC035=

USA.gov is the U.S. government's official web portal to all federal, state and local government web resources and services.